createdAt,value
2023-04-02T00:01:02.524Z,14.13
2023-04-02T00:03:43.963Z,20.17
2023-04-02T00:06:33.652Z,19.30
2023-04-02T00:09:04.403Z,23.50
2023-04-02T00:11:34.702Z,21.60
2023-04-02T00:14:02.714Z,17.27
2023-04-02T00:16:29.708Z,21.20
2023-04-02T00:18:59.042Z,19.10
2023-04-02T00:21:27.044Z,20.80
2023-04-02T00:23:54.678Z,17.27
2023-04-02T00:26:23.116Z,24.55
2023-04-02T00:28:51.212Z,18.20
2023-04-02T00:31:19.938Z,28.02
2023-04-02T00:33:48.244Z,19.02
2023-04-02T00:36:15.799Z,22.90
2023-04-02T00:38:44.285Z,21.73
2023-04-02T00:41:14.846Z,25.25
2023-04-02T00:43:44.676Z,24.75
2023-04-02T00:46:14.615Z,22.75
2023-04-02T00:48:44.788Z,22.92
2023-04-02T00:51:14.428Z,25.08
2023-04-02T00:53:41.972Z,27.63
2023-04-02T00:56:14.536Z,26.67
2023-04-02T00:58:42.921Z,21.05
2023-04-02T01:01:22.927Z,26.20
2023-04-02T01:04:01.367Z,24.52
2023-04-02T01:06:34.284Z,27.05
2023-04-02T01:09:20.176Z,26.80
2023-04-02T01:12:02.340Z,27.92
2023-04-02T01:14:52.574Z,22.35
2023-04-02T01:17:30.761Z,20.98
2023-04-02T01:20:23.688Z,25.08
2023-04-02T01:22:51.084Z,22.38
2023-04-02T01:25:22.654Z,23.20
2023-04-02T01:27:56.431Z,23.02
2023-04-02T01:30:23.622Z,20.20
2023-04-02T01:32:50.490Z,18.70
2023-04-02T01:35:17.665Z,23.13
2023-04-02T01:37:49.675Z,21.55
2023-04-02T01:40:22.585Z,28.60
2023-04-02T01:43:02.083Z,24.17
2023-04-02T01:45:29.500Z,25.63
2023-04-02T01:47:56.719Z,23.80
2023-04-02T01:50:31.972Z,30.45
2023-04-02T01:53:01.297Z,26.27
2023-04-02T01:55:40.897Z,25.92
2023-04-02T01:58:09.959Z,22.35
2023-04-02T02:00:39.789Z,26.60
2023-04-02T02:03:08.762Z,27.67
2023-04-02T02:05:36.550Z,26.25
2023-04-02T02:08:03.966Z,19.10
2023-04-02T02:10:35.681Z,22.90
2023-04-02T02:13:02.764Z,24.17
2023-04-02T02:15:32.030Z,27.27
2023-04-02T02:18:01.188Z,26.17
2023-04-02T02:20:29.424Z,21.60
2023-04-02T02:22:56.818Z,24.48
2023-04-02T02:25:31.959Z,24.75
2023-04-02T02:27:59.651Z,21.02
2023-04-02T02:30:30.743Z,21.73
2023-04-02T02:33:03.185Z,23.17
2023-04-02T02:35:43.195Z,22.98
2023-04-02T02:38:25.945Z,19.40
2023-04-02T02:40:55.095Z,20.52
2023-04-02T02:43:22.673Z,19.90
2023-04-02T02:45:50.160Z,23.88
2023-04-02T02:48:19.758Z,24.95
2023-04-02T02:50:48.021Z,21.92
2023-04-02T02:53:20.119Z,17.90
2023-04-02T02:55:48.442Z,21.25
2023-04-02T02:58:27.487Z,19.40
2023-04-02T03:01:06.360Z,23.33
2023-04-02T03:03:35.628Z,21.95
2023-04-02T03:06:06.416Z,20.80
2023-04-02T03:08:38.240Z,22.02
2023-04-02T03:11:12.145Z,18.13
2023-04-02T03:13:46.799Z,20.60
2023-04-02T03:16:21.086Z,18.52
2023-04-02T03:18:48.320Z,20.38
2023-04-02T03:21:34.237Z,24.40
2023-04-02T03:24:02.284Z,20.73
2023-04-02T03:26:29.264Z,23.88
2023-04-02T03:28:59.754Z,24.15
2023-04-02T03:31:37.897Z,22.40
2023-04-02T03:34:09.038Z,24.05
2023-04-02T03:36:43.811Z,18.63
2023-04-02T03:41:58.642Z,17.70
2023-04-02T03:44:31.881Z,19.13
2023-04-02T03:47:03.104Z,20.60
2023-04-02T03:49:33.085Z,23.98
2023-04-02T03:52:00.289Z,19.63
2023-04-02T03:54:27.730Z,24.67
2023-04-02T03:56:55.085Z,18.40
2023-04-02T03:59:27.742Z,17.15
2023-04-02T04:01:59.032Z,21.02
2023-04-02T04:04:31.698Z,21.88
2023-04-02T04:07:00.217Z,19.23
2023-04-02T04:09:35.508Z,27.05
2023-04-02T04:12:08.854Z,22.70
2023-04-02T04:14:38.778Z,18.65
2023-04-02T04:17:06.154Z,19.25
2023-04-02T04:19:39.885Z,21.45
2023-04-02T04:22:34.168Z,22.30
2023-04-02T04:25:21.428Z,23.85
2023-04-02T04:28:24.916Z,19.23
2023-04-02T04:31:08.601Z,20.50
2023-04-02T04:33:45.277Z,18.08
2023-04-02T04:36:21.708Z,18.95
2023-04-02T04:38:55.735Z,20.45
2023-04-02T04:41:27.178Z,20.33
2023-04-02T04:43:57.462Z,23.38
2023-04-02T04:46:28.612Z,18.35
2023-04-02T04:48:59.627Z,22.00
2023-04-02T04:51:32.501Z,20.80
2023-04-02T04:54:00.749Z,20.60
2023-04-02T04:56:31.952Z,23.60
2023-04-02T04:59:26.531Z,16.27
2023-04-02T05:02:18.077Z,18.63
2023-04-02T05:05:04.205Z,16.63
2023-04-02T05:07:57.885Z,21.88
2023-04-02T05:10:51.050Z,17.45
2023-04-02T05:13:25.041Z,19.58
2023-04-02T05:16:04.950Z,23.05
2023-04-02T05:18:44.244Z,18.50
2023-04-02T05:21:17.325Z,16.05
2023-04-02T05:23:51.211Z,19.60
2023-04-02T05:26:25.364Z,16.70
2023-04-02T05:29:10.999Z,19.05
2023-04-02T05:31:43.213Z,22.50
2023-04-02T05:34:11.833Z,19.90
2023-04-02T05:36:39.254Z,19.50
2023-04-02T05:39:11.202Z,22.48
2023-04-02T05:41:47.725Z,19.23
2023-04-02T05:44:39.060Z,19.27
2023-04-02T05:47:07.292Z,21.67
2023-04-02T05:49:54.770Z,20.83
2023-04-02T05:52:27.339Z,19.63
2023-04-02T05:54:57.163Z,18.20
2023-04-02T05:57:46.851Z,17.00
2023-04-02T06:00:40.919Z,16.48
2023-04-02T06:03:18.228Z,14.93
2023-04-02T06:05:46.745Z,20.45
2023-04-02T06:08:30.643Z,15.05
2023-04-02T06:11:01.475Z,19.45
2023-04-02T06:13:32.488Z,18.13
2023-04-02T06:16:00.726Z,15.23
2023-04-02T06:18:33.040Z,17.95
2023-04-02T06:21:01.128Z,16.92
2023-04-02T06:23:32.452Z,13.75
2023-04-02T06:26:06.087Z,17.17
2023-04-02T06:28:46.537Z,14.63
2023-04-02T06:31:22.434Z,10.32
2023-04-02T06:33:52.711Z,12.23
2023-04-02T06:36:21.922Z,14.02
2023-04-02T06:38:49.841Z,22.30
2023-04-02T06:41:20.249Z,10.02
2023-04-02T06:44:19.737Z,12.07
2023-04-02T06:47:12.798Z,11.18
2023-04-02T06:49:46.061Z,10.05
2023-04-02T06:52:27.315Z,13.13
2023-04-02T06:54:57.612Z,9.20
2023-04-02T06:57:25.081Z,8.55
2023-04-02T06:59:53.421Z,8.57
2023-04-02T07:02:23.756Z,7.10
2023-04-02T07:04:52.283Z,8.05
2023-04-02T07:07:20.594Z,9.85
2023-04-02T07:09:48.963Z,7.75
2023-04-02T07:12:20.796Z,7.47
2023-04-02T07:14:48.431Z,9.25
2023-04-02T07:17:17.886Z,7.53
2023-04-02T07:19:45.906Z,12.30
2023-04-02T07:22:13.122Z,13.32
2023-04-02T07:24:42.726Z,9.32
2023-04-02T07:27:11.037Z,8.45
2023-04-02T07:29:43.538Z,9.30
2023-04-02T07:32:11.774Z,7.43
2023-04-02T07:34:39.153Z,6.10
2023-04-02T07:37:06.993Z,8.82
2023-04-02T07:39:36.195Z,8.85
2023-04-02T07:42:04.187Z,8.82
2023-04-02T07:44:31.265Z,7.97
2023-04-02T07:46:58.393Z,8.63
2023-04-02T07:49:25.395Z,8.45
2023-04-02T07:51:52.322Z,10.15
2023-04-02T07:54:19.560Z,7.32
2023-04-02T07:56:46.671Z,6.88
2023-04-02T07:59:13.721Z,13.02
2023-04-02T08:01:43.221Z,10.77
2023-04-02T08:04:20.902Z,12.80
2023-04-02T08:06:48.298Z,7.57
2023-04-02T08:09:15.878Z,10.13
2023-04-02T08:11:43.567Z,11.30
2023-04-02T08:14:11.159Z,10.25
2023-04-02T08:16:46.207Z,7.93
2023-04-02T08:19:14.430Z,10.02
2023-04-02T08:21:41.485Z,12.65
2023-04-02T08:24:08.631Z,16.05
2023-04-02T08:26:36.585Z,10.40
2023-04-02T08:29:03.699Z,10.73
2023-04-02T08:31:30.602Z,8.90
2023-04-02T08:33:57.562Z,12.20
2023-04-02T08:36:30.172Z,7.75
2023-04-02T08:38:57.156Z,12.55
2023-04-02T08:41:28.081Z,11.82
2023-04-02T08:44:27.347Z,13.43
2023-04-02T08:47:07.809Z,9.23
2023-04-02T08:50:01.359Z,9.05
2023-04-02T08:52:33.207Z,12.38
2023-04-02T08:55:01.435Z,12.82
2023-04-02T08:57:43.324Z,13.38
2023-04-02T09:00:20.416Z,12.48
2023-04-02T09:02:49.904Z,11.18
2023-04-02T09:05:18.917Z,14.45
2023-04-02T09:07:47.249Z,7.45
2023-04-02T09:10:16.607Z,9.15
2023-04-02T09:12:47.024Z,11.77
2023-04-02T09:15:13.988Z,8.98
2023-04-02T09:17:53.000Z,9.40
2023-04-02T09:20:26.468Z,14.10
2023-04-02T09:22:54.300Z,8.05
2023-04-02T09:25:23.048Z,14.45
2023-04-02T09:27:50.906Z,13.10
2023-04-02T09:30:17.699Z,8.98
2023-04-02T09:32:47.663Z,10.63
2023-04-02T09:35:25.368Z,14.93
2023-04-02T09:38:17.352Z,10.52
2023-04-02T09:40:50.427Z,12.82
2023-04-02T09:43:18.814Z,12.57
2023-04-02T09:45:55.829Z,9.48
2023-04-02T09:48:33.380Z,10.75
2023-04-02T09:51:04.702Z,14.27
2023-04-02T09:53:35.738Z,9.07
2023-04-02T09:56:13.468Z,9.00
2023-04-02T09:58:42.048Z,8.35
2023-04-02T10:01:29.532Z,10.88
2023-04-02T10:03:56.658Z,10.45
2023-04-02T10:06:23.544Z,11.80
2023-04-02T10:08:50.585Z,12.93
2023-04-02T10:11:30.919Z,10.07
2023-04-02T10:14:06.052Z,7.68
2023-04-02T10:16:35.488Z,9.18
2023-04-02T10:19:21.102Z,11.68
2023-04-02T10:21:49.373Z,9.98
2023-04-02T10:24:17.111Z,8.65
2023-04-02T10:26:50.507Z,12.05
2023-04-02T10:29:36.431Z,9.23
2023-04-02T10:32:09.120Z,10.57
2023-04-02T10:34:39.413Z,10.30
2023-04-02T10:37:23.711Z,11.43
2023-04-02T10:39:53.957Z,8.90
2023-04-02T10:42:33.901Z,9.65
2023-04-02T10:45:04.628Z,9.88
2023-04-02T10:47:34.824Z,10.18
2023-04-02T10:50:13.838Z,7.20
2023-04-02T10:52:47.634Z,8.50
2023-04-02T10:55:30.300Z,8.55
2023-04-02T10:57:59.418Z,7.25
2023-04-02T11:00:28.288Z,6.50
2023-04-02T11:03:02.454Z,7.35
2023-04-02T11:05:43.989Z,5.03
2023-04-02T11:08:11.768Z,7.40
2023-04-02T11:10:40.556Z,9.43
2023-04-02T11:13:18.421Z,6.13
2023-04-02T11:15:45.671Z,8.20
2023-04-02T11:18:29.944Z,10.00
2023-04-02T11:20:58.854Z,6.35
2023-04-02T11:23:33.571Z,9.25
2023-04-02T11:26:32.948Z,7.32
2023-04-02T11:29:06.958Z,7.18
2023-04-02T11:31:34.170Z,3.95
2023-04-02T11:34:01.143Z,6.28
2023-04-02T11:36:46.815Z,6.70
2023-04-02T11:39:17.732Z,8.45
2023-04-02T11:42:01.587Z,8.07
2023-04-02T11:44:29.186Z,4.15
2023-04-02T11:47:16.523Z,3.40
2023-04-02T11:49:56.156Z,2.92
2023-04-02T11:52:23.194Z,4.93
2023-04-02T11:55:05.779Z,4.10
2023-04-02T11:57:42.217Z,4.78
2023-04-02T12:00:17.910Z,5.05
2023-04-02T12:02:54.353Z,6.22
2023-04-02T12:05:27.379Z,7.78
2023-04-02T12:08:32.817Z,7.50
2023-04-02T12:11:01.390Z,5.75
2023-04-02T12:13:40.627Z,5.45
2023-04-02T12:16:08.511Z,7.97
2023-04-02T12:18:35.484Z,7.75
2023-04-02T12:21:02.650Z,5.68
2023-04-02T12:23:31.571Z,4.95
2023-04-02T12:26:09.019Z,4.22
2023-04-02T12:28:38.359Z,6.45
2023-04-02T12:31:08.185Z,4.85
2023-04-02T12:33:38.865Z,5.05
2023-04-02T12:36:26.404Z,6.95
2023-04-02T12:38:56.472Z,4.60
2023-04-02T12:41:36.152Z,4.82
2023-04-02T12:44:04.459Z,5.75
2023-04-02T12:46:33.093Z,4.53
2023-04-02T12:49:14.794Z,5.70
2023-04-02T12:51:41.872Z,2.60
2023-04-02T12:54:13.194Z,4.18
2023-04-02T12:56:40.116Z,4.20
2023-04-02T12:59:24.512Z,4.30
2023-04-02T13:02:02.642Z,4.78
2023-04-02T13:04:29.609Z,6.07
2023-04-02T13:06:56.961Z,6.20
2023-04-02T13:09:45.924Z,5.78
2023-04-02T13:12:26.490Z,5.57
2023-04-02T13:14:57.091Z,3.85
2023-04-02T13:17:37.057Z,6.20
2023-04-02T13:20:22.649Z,4.72
2023-04-02T13:22:49.603Z,5.53
2023-04-02T13:25:16.434Z,5.22
2023-04-02T13:27:43.274Z,4.22
2023-04-02T13:30:10.989Z,4.72
2023-04-02T13:32:38.154Z,7.32
2023-04-02T13:35:05.172Z,5.70
2023-04-02T13:37:32.072Z,3.58
2023-04-02T13:39:58.992Z,4.10
2023-04-02T13:42:26.427Z,4.47
2023-04-02T13:44:53.322Z,5.15
2023-04-02T13:47:20.500Z,4.97
2023-04-02T13:49:47.383Z,4.05
2023-04-02T13:52:15.740Z,4.75
2023-04-02T13:54:50.218Z,4.68
2023-04-02T13:57:18.044Z,5.22
2023-04-02T13:59:44.870Z,4.32
2023-04-02T14:02:17.406Z,2.90
2023-04-02T14:04:52.605Z,11.77
2023-04-02T14:09:50.446Z,4.05
2023-04-02T14:12:23.829Z,3.63
2023-04-02T14:15:08.708Z,5.00
2023-04-02T14:17:36.859Z,4.15
2023-04-02T14:20:19.359Z,6.82
2023-04-02T14:22:46.492Z,4.47
2023-04-02T14:25:19.620Z,4.03
2023-04-02T14:28:06.518Z,4.15
2023-04-02T14:30:50.283Z,6.10
2023-04-02T14:33:19.967Z,5.38
2023-04-02T14:35:49.423Z,3.22
2023-04-02T14:38:22.595Z,2.58
2023-04-02T14:40:52.560Z,5.30
2023-04-02T14:43:46.146Z,7.18
2023-04-02T14:46:13.042Z,2.67
2023-04-02T14:48:58.806Z,4.32
2023-04-02T14:51:37.251Z,3.17
2023-04-02T14:54:07.332Z,5.55
2023-04-02T14:56:38.105Z,7.25
2023-04-02T14:59:11.566Z,5.45
2023-04-02T15:01:40.024Z,14.60
2023-04-02T15:04:10.775Z,13.88
2023-04-02T15:06:41.941Z,4.63
2023-04-02T15:09:28.143Z,4.25
2023-04-02T15:11:56.610Z,4.28
2023-04-02T15:14:26.476Z,7.57
2023-04-02T15:16:53.331Z,12.60
2023-04-02T15:19:20.386Z,19.67
2023-04-02T15:21:59.522Z,4.70
2023-04-02T15:24:43.407Z,4.25
2023-04-02T15:27:23.900Z,5.88
2023-04-02T15:29:52.241Z,8.98
2023-04-02T15:32:34.699Z,4.53
2023-04-02T15:35:05.027Z,6.25
2023-04-02T15:37:37.898Z,7.07
2023-04-02T15:40:18.479Z,5.38
2023-04-02T15:43:06.294Z,7.18
2023-04-02T15:45:41.590Z,4.53
2023-04-02T15:48:20.855Z,3.03
2023-04-02T15:50:51.026Z,5.50
2023-04-02T15:53:31.630Z,3.40
2023-04-02T15:56:17.319Z,4.80
2023-04-02T15:58:57.244Z,5.07
2023-04-02T16:01:32.511Z,3.67
2023-04-02T16:04:19.725Z,8.27
2023-04-02T16:06:59.264Z,5.70
2023-04-02T16:09:27.484Z,4.07
2023-04-02T16:11:57.623Z,4.15
2023-04-02T16:14:29.159Z,3.17
2023-04-02T16:17:02.109Z,6.57
2023-04-02T16:19:35.912Z,4.40
2023-04-02T16:22:05.584Z,3.35
2023-04-02T16:24:32.698Z,6.97
2023-04-02T16:26:59.534Z,4.45
2023-04-02T16:29:26.280Z,4.13
2023-04-02T16:31:53.520Z,8.38
2023-04-02T16:34:32.860Z,7.05
2023-04-02T16:37:06.258Z,19.83
2023-04-02T16:39:39.525Z,5.63
2023-04-02T16:42:11.683Z,4.65
2023-04-02T16:44:50.347Z,8.02
2023-04-02T16:47:41.197Z,5.22
2023-04-02T16:50:27.308Z,6.90
2023-04-02T16:53:12.710Z,4.85
2023-04-02T16:55:51.610Z,6.60
2023-04-02T16:58:25.782Z,10.02
2023-04-02T17:00:56.294Z,5.18
2023-04-02T17:03:26.778Z,12.32
2023-04-02T17:05:56.837Z,5.35
2023-04-02T17:08:24.758Z,3.45
2023-04-02T17:11:02.161Z,4.35
2023-04-02T17:13:32.643Z,5.55
2023-04-02T17:16:06.789Z,4.85
2023-04-02T17:18:33.828Z,4.80
2023-04-02T17:21:05.609Z,4.03
2023-04-02T17:23:38.407Z,2.95
2023-04-02T17:26:11.451Z,4.68
2023-04-02T17:28:39.320Z,3.50
2023-04-02T17:31:31.001Z,5.50
2023-04-02T17:33:58.068Z,6.72
2023-04-02T17:36:32.901Z,6.63
2023-04-02T17:38:59.724Z,10.68
2023-04-02T17:41:49.914Z,6.28
2023-04-02T17:44:30.040Z,4.95
2023-04-02T17:47:00.059Z,5.18
2023-04-02T17:49:45.863Z,4.28
2023-04-02T17:52:19.029Z,5.03
2023-04-02T17:55:22.441Z,5.28
2023-04-02T17:58:12.229Z,3.95
2023-04-02T18:00:45.068Z,6.55
2023-04-02T18:03:31.079Z,6.40
2023-04-02T18:06:00.954Z,5.97
2023-04-02T18:08:31.199Z,4.28
2023-04-02T18:11:03.753Z,4.55
2023-04-02T18:13:34.538Z,5.95
2023-04-02T18:16:04.654Z,7.25
2023-04-02T18:18:40.831Z,6.63
2023-04-02T18:21:07.823Z,7.18
2023-04-02T18:23:45.954Z,8.55
2023-04-02T18:26:25.973Z,8.00
2023-04-02T18:29:06.130Z,10.25
2023-04-02T18:31:33.210Z,5.25
2023-04-02T18:34:19.780Z,5.80
2023-04-02T18:36:52.858Z,8.90
2023-04-02T18:39:32.486Z,4.68
2023-04-02T18:42:02.520Z,4.88
2023-04-02T18:44:39.384Z,10.10
2023-04-02T18:47:12.622Z,6.68
2023-04-02T18:49:40.779Z,5.82
2023-04-02T18:52:18.448Z,6.88
2023-04-02T18:54:56.256Z,5.32
2023-04-02T18:57:25.013Z,8.82
2023-04-02T18:59:57.796Z,12.18
2023-04-02T19:02:29.687Z,11.85
2023-04-02T19:05:08.591Z,8.25
2023-04-02T19:07:37.520Z,6.93
2023-04-02T19:10:13.977Z,8.95
2023-04-02T19:12:41.074Z,8.80
2023-04-02T19:15:15.651Z,6.72
2023-04-02T19:17:45.401Z,8.10
2023-04-02T19:20:18.431Z,10.30
2023-04-02T19:22:48.750Z,7.85
2023-04-02T19:25:15.949Z,9.15
2023-04-02T19:27:53.612Z,5.20
2023-04-02T19:30:32.142Z,7.68
2023-04-02T19:33:17.825Z,5.93
2023-04-02T19:35:57.501Z,5.30
2023-04-02T19:38:33.694Z,9.02
2023-04-02T19:41:09.766Z,5.07
2023-04-02T19:43:36.864Z,7.43
2023-04-02T19:46:04.041Z,6.60
2023-04-02T19:48:36.729Z,6.20
2023-04-02T19:51:03.712Z,11.93
2023-04-02T19:53:30.553Z,7.40
2023-04-02T19:55:57.613Z,9.25
2023-04-02T19:58:27.819Z,11.25
2023-04-02T20:00:55.121Z,10.88
2023-04-02T20:03:22.419Z,6.72
2023-04-02T20:05:49.794Z,10.02
2023-04-02T20:08:16.630Z,9.50
2023-04-02T20:10:43.446Z,9.00
2023-04-02T20:13:10.821Z,11.05
2023-04-02T20:15:39.427Z,9.00
2023-04-02T20:18:10.957Z,13.40
2023-04-02T20:20:39.512Z,11.68
2023-04-02T20:23:06.859Z,11.90
2023-04-02T20:25:33.822Z,10.00
2023-04-02T20:28:04.114Z,9.57
2023-04-02T20:30:32.507Z,15.15
2023-04-02T20:32:59.945Z,11.63
2023-04-02T20:35:27.509Z,10.30
2023-04-02T20:37:54.626Z,9.02
2023-04-02T20:40:21.825Z,8.10
2023-04-02T20:42:49.036Z,8.77
2023-04-02T20:45:16.021Z,10.25
2023-04-02T20:47:43.432Z,8.90
2023-04-02T20:50:10.720Z,6.93
2023-04-02T20:52:37.471Z,8.32
2023-04-02T20:55:05.289Z,10.20
2023-04-02T20:57:33.105Z,7.75
2023-04-02T21:00:02.461Z,9.98
2023-04-02T21:02:29.338Z,9.02
2023-04-02T21:04:56.713Z,9.93
2023-04-02T21:07:23.570Z,10.80
2023-04-02T21:09:52.291Z,11.98
2023-04-02T21:12:19.441Z,8.68
2023-04-02T21:14:46.617Z,9.77
2023-04-02T21:17:13.632Z,10.35
2023-04-02T21:19:40.860Z,8.05
2023-04-02T21:22:07.653Z,9.35
2023-04-02T21:24:34.763Z,10.80
2023-04-02T21:27:01.763Z,8.05
2023-04-02T21:29:28.589Z,8.55
2023-04-02T21:31:55.686Z,10.73
2023-04-02T21:34:22.596Z,11.20
2023-04-02T21:36:50.566Z,11.57
2023-04-02T21:39:18.737Z,9.77
2023-04-02T21:41:46.949Z,6.85
2023-04-02T21:44:14.729Z,10.90
2023-04-02T21:46:45.452Z,8.25
2023-04-02T21:49:13.340Z,11.55
2023-04-02T21:51:41.810Z,11.95
2023-04-02T21:54:08.652Z,13.00
2023-04-02T21:56:36.744Z,11.70
2023-04-02T21:59:04.882Z,11.32
2023-04-02T22:01:33.248Z,12.82
2023-04-02T22:04:01.731Z,10.82
2023-04-02T22:06:29.748Z,12.25
2023-04-02T22:08:57.926Z,12.18
2023-04-02T22:11:29.242Z,11.95
2023-04-02T22:13:56.307Z,13.95
2023-04-02T22:16:25.340Z,10.90
2023-04-02T22:18:53.071Z,13.02
2023-04-02T22:21:20.056Z,12.50
2023-04-02T22:23:47.547Z,10.50
2023-04-02T22:26:15.249Z,7.90
2023-04-02T22:28:42.384Z,8.50
2023-04-02T22:31:13.954Z,8.38
2023-04-02T22:33:41.303Z,5.80
2023-04-02T22:36:08.647Z,7.13
2023-04-02T22:38:36.776Z,9.82
2023-04-02T22:41:13.602Z,4.63
2023-04-02T22:43:41.599Z,5.80
2023-04-02T22:46:09.051Z,8.20
2023-04-02T22:48:36.658Z,7.15
2023-04-02T22:51:03.749Z,6.55
2023-04-02T22:53:30.723Z,6.43
2023-04-02T22:56:26.042Z,8.35
2023-04-02T22:58:52.969Z,7.28
2023-04-02T23:01:22.164Z,7.40
2023-04-02T23:03:49.532Z,8.35
2023-04-02T23:06:18.198Z,8.15
2023-04-02T23:08:45.891Z,8.13
2023-04-02T23:11:14.411Z,6.45
2023-04-02T23:13:42.013Z,7.20
2023-04-02T23:16:11.428Z,5.47
2023-04-02T23:18:39.206Z,7.05
2023-04-02T23:21:06.818Z,6.30
2023-04-02T23:23:34.105Z,9.80
2023-04-02T23:26:14.973Z,5.10
2023-04-02T23:28:41.852Z,5.82
2023-04-02T23:31:11.048Z,6.70
2023-04-02T23:33:38.127Z,6.13
2023-04-02T23:36:17.419Z,7.20
2023-04-02T23:38:44.392Z,6.10
2023-04-02T23:41:17.666Z,6.93
2023-04-02T23:43:44.625Z,5.88
2023-04-02T23:46:11.740Z,8.00
2023-04-02T23:48:38.866Z,5.90
2023-04-02T23:51:06.836Z,4.22
2023-04-02T23:53:34.550Z,6.68
2023-04-02T23:56:01.411Z,4.18
2023-04-02T23:58:28.399Z,4.82
